sensor_id;sensor_type;location;lat;lon;timestamp;pressure;altitude;pressure_sealevel;temperature;humidity
74079;BME280;62437;51.544;-3.276;2023-04-25T00:01:08;101032.55;;;5.31;57.64
74079;BME280;62437;51.544;-3.276;2023-04-25T00:03:34;101034.59;;;5.39;59.45
74079;BME280;62437;51.544;-3.276;2023-04-25T00:06:00;101040.56;;;5.50;58.97
74079;BME280;62437;51.544;-3.276;2023-04-25T00:08:28;101040.96;;;5.53;57.57
74079;BME280;62437;51.544;-3.276;2023-04-25T00:10:51;101050.82;;;4.83;58.13
74079;BME280;62437;51.544;-3.276;2023-04-25T00:13:17;101051.05;;;5.63;57.84
74079;BME280;62437;51.544;-3.276;2023-04-25T00:15:43;101053.16;;;4.90;58.57
74079;BME280;62437;51.544;-3.276;2023-04-25T00:18:09;101048.89;;;4.90;58.69
74079;BME280;62437;51.544;-3.276;2023-04-25T00:20:35;101047.25;;;4.77;56.83
74079;BME280;62437;51.544;-3.276;2023-04-25T00:23:00;101050.08;;;5.16;58.44
74079;BME280;62437;51.544;-3.276;2023-04-25T00:25:26;101059.84;;;4.10;59.42
74079;BME280;62437;51.544;-3.276;2023-04-25T00:27:52;101054.00;;;6.02;57.32
74079;BME280;62437;51.544;-3.276;2023-04-25T00:30:17;101052.58;;;6.11;56.76
74079;BME280;62437;51.544;-3.276;2023-04-25T00:32:43;101052.48;;;4.94;59.67
74079;BME280;62437;51.544;-3.276;2023-04-25T00:35:09;101052.26;;;4.74;57.69
74079;BME280;62437;51.544;-3.276;2023-04-25T00:37:35;101055.81;;;4.85;59.82
74079;BME280;62437;51.544;-3.276;2023-04-25T00:40:00;101059.38;;;4.38;60.39
74079;BME280;62437;51.544;-3.276;2023-04-25T00:42:28;101058.44;;;4.05;60.98
74079;BME280;62437;51.544;-3.276;2023-04-25T00:44:52;101055.72;;;5.92;57.50
74079;BME280;62437;51.544;-3.276;2023-04-25T00:47:18;101059.77;;;5.66;57.67
74079;BME280;62437;51.544;-3.276;2023-04-25T00:49:43;101069.37;;;4.93;58.95
74079;BME280;62437;51.544;-3.276;2023-04-25T00:52:09;101070.58;;;4.51;58.18
74079;BME280;62437;51.544;-3.276;2023-04-25T00:54:35;101071.97;;;4.43;58.70
74079;BME280;62437;51.544;-3.276;2023-04-25T00:57:00;101072.58;;;5.54;59.40
74079;BME280;62437;51.544;-3.276;2023-04-25T00:59:27;101077.74;;;4.43;58.32
74079;BME280;62437;51.544;-3.276;2023-04-25T01:01:52;101074.66;;;4.57;61.07
74079;BME280;62437;51.544;-3.276;2023-04-25T01:04:18;101074.78;;;4.31;59.16
74079;BME280;62437;51.544;-3.276;2023-04-25T01:06:44;101071.59;;;3.96;62.00
74079;BME280;62437;51.544;-3.276;2023-04-25T01:09:09;101065.27;;;5.50;58.28
74079;BME280;62437;51.544;-3.276;2023-04-25T01:11:35;101068.85;;;5.08;59.43
74079;BME280;62437;51.544;-3.276;2023-04-25T01:14:01;101073.27;;;4.19;61.92
74079;BME280;62437;51.544;-3.276;2023-04-25T01:16:26;101073.83;;;4.26;62.57
74079;BME280;62437;51.544;-3.276;2023-04-25T01:18:54;101074.00;;;3.58;62.43
74079;BME280;62437;51.544;-3.276;2023-04-25T01:21:18;101078.32;;;4.23;61.71
74079;BME280;62437;51.544;-3.276;2023-04-25T01:23:44;101081.03;;;4.20;60.61
74079;BME280;62437;51.544;-3.276;2023-04-25T01:26:11;101080.00;;;4.81;57.87
74079;BME280;62437;51.544;-3.276;2023-04-25T01:28:35;101084.97;;;4.55;61.36
74079;BME280;62437;51.544;-3.276;2023-04-25T01:31:02;101082.59;;;3.94;62.05
74079;BME280;62437;51.544;-3.276;2023-04-25T01:33:27;101084.74;;;4.09;62.57
74079;BME280;62437;51.544;-3.276;2023-04-25T01:35:52;101079.56;;;3.84;65.38
74079;BME280;62437;51.544;-3.276;2023-04-25T01:38:18;101079.40;;;4.33;62.68
74079;BME280;62437;51.544;-3.276;2023-04-25T01:40:45;101079.49;;;3.90;64.02
74079;BME280;62437;51.544;-3.276;2023-04-25T01:43:11;101080.93;;;3.79;64.58
74079;BME280;62437;51.544;-3.276;2023-04-25T01:45:36;101085.05;;;3.84;65.67
74079;BME280;62437;51.544;-3.276;2023-04-25T01:48:01;101089.43;;;3.73;65.40
74079;BME280;62437;51.544;-3.276;2023-04-25T01:50:27;101090.12;;;3.60;65.80
74079;BME280;62437;51.544;-3.276;2023-04-25T01:52:53;101089.50;;;3.48;66.18
74079;BME280;62437;51.544;-3.276;2023-04-25T01:55:18;101085.55;;;4.13;64.25
74079;BME280;62437;51.544;-3.276;2023-04-25T01:57:44;101086.64;;;3.28;64.68
74079;BME280;62437;51.544;-3.276;2023-04-25T02:00:11;101088.12;;;4.47;58.90
74079;BME280;62437;51.544;-3.276;2023-04-25T02:02:36;101088.71;;;5.56;57.36
74079;BME280;62437;51.544;-3.276;2023-04-25T02:05:01;101088.10;;;4.15;60.51
74079;BME280;62437;51.544;-3.276;2023-04-25T02:07:27;101089.75;;;5.00;59.78
74079;BME280;62437;51.544;-3.276;2023-04-25T02:09:53;101092.13;;;5.37;58.74
74079;BME280;62437;51.544;-3.276;2023-04-25T02:12:20;101092.40;;;5.32;60.26
74079;BME280;62437;51.544;-3.276;2023-04-25T02:14:44;101094.16;;;4.71;59.32
74079;BME280;62437;51.544;-3.276;2023-04-25T02:17:10;101097.17;;;4.26;60.23
74079;BME280;62437;51.544;-3.276;2023-04-25T02:19:36;101098.08;;;4.11;59.64
74079;BME280;62437;51.544;-3.276;2023-04-25T02:22:02;101101.19;;;4.66;58.09
74079;BME280;62437;51.544;-3.276;2023-04-25T02:24:27;101105.46;;;3.60;55.76
74079;BME280;62437;51.544;-3.276;2023-04-25T02:26:53;101104.34;;;4.47;56.65
74079;BME280;62437;51.544;-3.276;2023-04-25T02:29:19;101103.59;;;4.85;56.23
74079;BME280;62437;51.544;-3.276;2023-04-25T02:31:46;101106.22;;;4.98;56.69
74079;BME280;62437;51.544;-3.276;2023-04-25T02:34:10;101107.09;;;4.47;55.35
74079;BME280;62437;51.544;-3.276;2023-04-25T02:36:36;101108.07;;;4.14;57.99
74079;BME280;62437;51.544;-3.276;2023-04-25T02:39:02;101109.41;;;3.98;60.19
74079;BME280;62437;51.544;-3.276;2023-04-25T02:41:28;101106.67;;;4.12;59.36
74079;BME280;62437;51.544;-3.276;2023-04-25T02:43:54;101106.99;;;4.30;56.86
74079;BME280;62437;51.544;-3.276;2023-04-25T02:46:19;101106.20;;;3.21;59.29
74079;BME280;62437;51.544;-3.276;2023-04-25T02:48:45;101103.01;;;3.75;58.99
74079;BME280;62437;51.544;-3.276;2023-04-25T02:51:13;101105.82;;;4.09;58.50
74079;BME280;62437;51.544;-3.276;2023-04-25T02:53:36;101106.00;;;3.85;58.79
74079;BME280;62437;51.544;-3.276;2023-04-25T02:56:02;101106.05;;;3.31;57.97
74079;BME280;62437;51.544;-3.276;2023-04-25T02:58:28;101109.20;;;3.48;59.13
74079;BME280;62437;51.544;-3.276;2023-04-25T03:00:54;101113.86;;;3.33;59.46
74079;BME280;62437;51.544;-3.276;2023-04-25T03:03:19;101118.71;;;3.23;60.95
74079;BME280;62437;51.544;-3.276;2023-04-25T03:05:45;101119.18;;;2.67;62.32
74079;BME280;62437;51.544;-3.276;2023-04-25T03:08:11;101121.10;;;3.05;61.29
74079;BME280;62437;51.544;-3.276;2023-04-25T03:10:37;101120.79;;;2.72;60.52
74079;BME280;62437;51.544;-3.276;2023-04-25T03:13:03;101117.12;;;3.96;58.55
74079;BME280;62437;51.544;-3.276;2023-04-25T03:15:28;101122.38;;;3.36;58.48
74079;BME280;62437;51.544;-3.276;2023-04-25T03:17:54;101120.37;;;3.87;55.25
74079;BME280;62437;51.544;-3.276;2023-04-25T03:20:21;101122.11;;;3.53;57.82
74079;BME280;62437;51.544;-3.276;2023-04-25T03:22:46;101127.78;;;5.23;57.39
74079;BME280;62437;51.544;-3.276;2023-04-25T03:25:11;101131.25;;;3.20;60.38
74079;BME280;62437;51.544;-3.276;2023-04-25T03:27:37;101136.23;;;2.83;63.71
74079;BME280;62437;51.544;-3.276;2023-04-25T03:30:03;101133.53;;;2.55;63.46
74079;BME280;62437;51.544;-3.276;2023-04-25T03:32:30;101137.62;;;2.12;65.07
74079;BME280;62437;51.544;-3.276;2023-04-25T03:34:54;101140.83;;;2.45;64.36
74079;BME280;62437;51.544;-3.276;2023-04-25T03:37:20;101143.85;;;2.83;65.16
74079;BME280;62437;51.544;-3.276;2023-04-25T03:39:46;101146.49;;;2.43;64.90
74079;BME280;62437;51.544;-3.276;2023-04-25T03:42:13;101147.51;;;1.90;67.44
74079;BME280;62437;51.544;-3.276;2023-04-25T03:44:37;101146.32;;;3.63;64.25
74079;BME280;62437;51.544;-3.276;2023-04-25T03:47:03;101154.11;;;2.71;66.10
74079;BME280;62437;51.544;-3.276;2023-04-25T03:49:29;101155.44;;;2.61;67.33
74079;BME280;62437;51.544;-3.276;2023-04-25T03:51:54;101156.71;;;1.77;68.74
74079;BME280;62437;51.544;-3.276;2023-04-25T03:54:21;101156.04;;;2.33;67.38
74079;BME280;62437;51.544;-3.276;2023-04-25T03:56:46;101156.09;;;2.03;67.12
74079;BME280;62437;51.544;-3.276;2023-04-25T03:59:12;101158.11;;;1.82;67.69
74079;BME280;62437;51.544;-3.276;2023-04-25T04:01:38;101165.19;;;1.52;68.90
74079;BME280;62437;51.544;-3.276;2023-04-25T04:04:04;101161.28;;;1.78;67.69
74079;BME280;62437;51.544;-3.276;2023-04-25T04:06:29;101161.01;;;1.79;67.20
74079;BME280;62437;51.544;-3.276;2023-04-25T04:08:55;101166.54;;;1.59;67.79
74079;BME280;62437;51.544;-3.276;2023-04-25T04:11:21;101165.72;;;1.81;67.95
74079;BME280;62437;51.544;-3.276;2023-04-25T04:13:46;101168.89;;;1.50;68.05
74079;BME280;62437;51.544;-3.276;2023-04-25T04:16:12;101171.14;;;1.27;68.25
74079;BME280;62437;51.544;-3.276;2023-04-25T04:18:38;101172.90;;;1.11;68.85
74079;BME280;62437;51.544;-3.276;2023-04-25T04:21:04;101172.80;;;1.14;68.14
74079;BME280;62437;51.544;-3.276;2023-04-25T04:23:30;101174.84;;;1.53;67.67
74079;BME280;62437;51.544;-3.276;2023-04-25T04:25:55;101175.91;;;1.87;66.01
74079;BME280;62437;51.544;-3.276;2023-04-25T04:28:21;101182.59;;;1.58;67.21
74079;BME280;62437;51.544;-3.276;2023-04-25T04:30:47;101186.16;;;1.66;67.59
74079;BME280;62437;51.544;-3.276;2023-04-25T04:33:13;101189.20;;;1.21;67.97
74079;BME280;62437;51.544;-3.276;2023-04-25T04:35:38;101192.53;;;1.21;69.04
74079;BME280;62437;51.544;-3.276;2023-04-25T04:38:04;101193.25;;;1.16;68.73
74079;BME280;62437;51.544;-3.276;2023-04-25T04:40:30;101196.15;;;1.16;67.82
74079;BME280;62437;51.544;-3.276;2023-04-25T04:42:56;101196.07;;;1.46;66.43
74079;BME280;62437;51.544;-3.276;2023-04-25T04:45:23;101197.59;;;1.38;67.39
74079;BME280;62437;51.544;-3.276;2023-04-25T04:47:47;101203.46;;;1.33;68.59
74079;BME280;62437;51.544;-3.276;2023-04-25T04:50:13;101204.60;;;1.33;68.12
74079;BME280;62437;51.544;-3.276;2023-04-25T04:52:39;101210.17;;;1.01;67.99
74079;BME280;62437;51.544;-3.276;2023-04-25T04:55:06;101212.69;;;0.82;69.01
74079;BME280;62437;51.544;-3.276;2023-04-25T04:57:31;101214.87;;;1.20;68.32
74079;BME280;62437;51.544;-3.276;2023-04-25T04:59:56;101216.32;;;1.62;67.39
74079;BME280;62437;51.544;-3.276;2023-04-25T05:02:22;101222.07;;;1.13;68.18
74079;BME280;62437;51.544;-3.276;2023-04-25T05:04:48;101226.66;;;0.95;69.02
74079;BME280;62437;51.544;-3.276;2023-04-25T05:07:14;101226.58;;;1.05;68.51
74079;BME280;62437;51.544;-3.276;2023-04-25T05:09:40;101224.58;;;1.48;66.22
74079;BME280;62437;51.544;-3.276;2023-04-25T05:12:06;101229.34;;;1.44;66.48
74079;BME280;62437;51.544;-3.276;2023-04-25T05:14:31;101236.21;;;1.15;66.79
74079;BME280;62437;51.544;-3.276;2023-04-25T05:16:57;101232.71;;;2.61;64.28
74079;BME280;62437;51.544;-3.276;2023-04-25T05:19:23;101239.21;;;0.95;66.28
74079;BME280;62437;51.544;-3.276;2023-04-25T05:21:48;101239.13;;;0.88;67.67
74079;BME280;62437;51.544;-3.276;2023-04-25T05:24:14;101241.99;;;0.60;68.63
74079;BME280;62437;51.544;-3.276;2023-04-25T05:26:40;101244.85;;;0.78;68.30
74079;BME280;62437;51.544;-3.276;2023-04-25T05:29:06;101248.16;;;0.92;69.38
74079;BME280;62437;51.544;-3.276;2023-04-25T05:31:32;101250.19;;;1.61;65.47
74079;BME280;62437;51.544;-3.276;2023-04-25T05:33:57;101255.46;;;1.55;66.93
74079;BME280;62437;51.544;-3.276;2023-04-25T05:36:23;101260.68;;;0.98;66.33
74079;BME280;62437;51.544;-3.276;2023-04-25T05:38:49;101262.13;;;2.07;63.22
74079;BME280;62437;51.544;-3.276;2023-04-25T05:41:15;101264.85;;;2.56;62.37
74079;BME280;62437;51.544;-3.276;2023-04-25T05:43:41;101263.15;;;3.54;58.95
74079;BME280;62437;51.544;-3.276;2023-04-25T05:46:06;101265.83;;;3.09;57.62
74079;BME280;62437;51.544;-3.276;2023-04-25T05:48:32;101266.34;;;2.70;58.33
74079;BME280;62437;51.544;-3.276;2023-04-25T05:50:58;101268.42;;;2.91;59.97
74079;BME280;62437;51.544;-3.276;2023-04-25T05:53:24;101266.25;;;2.79;58.98
74079;BME280;62437;51.544;-3.276;2023-04-25T05:55:49;101275.35;;;1.29;60.38
74079;BME280;62437;51.544;-3.276;2023-04-25T05:58:15;101280.15;;;1.51;60.09
74079;BME280;62437;51.544;-3.276;2023-04-25T06:00:41;101278.37;;;2.11;59.41
74079;BME280;62437;51.544;-3.276;2023-04-25T06:03:07;101278.83;;;1.89;59.18
74079;BME280;62437;51.544;-3.276;2023-04-25T06:05:32;101274.28;;;2.63;59.49
74079;BME280;62437;51.544;-3.276;2023-04-25T06:07:58;101278.78;;;1.00;61.78
74079;BME280;62437;51.544;-3.276;2023-04-25T06:10:24;101279.15;;;1.15;61.05
74079;BME280;62437;51.544;-3.276;2023-04-25T06:12:50;101286.88;;;1.91;60.27
74079;BME280;62437;51.544;-3.276;2023-04-25T06:15:15;101283.88;;;1.82;59.59
74079;BME280;62437;51.544;-3.276;2023-04-25T06:17:41;101278.33;;;2.31;59.42
74079;BME280;62437;51.544;-3.276;2023-04-25T06:20:08;101281.38;;;1.42;62.29
74079;BME280;62437;51.544;-3.276;2023-04-25T06:22:33;101278.98;;;1.46;61.29
74079;BME280;62437;51.544;-3.276;2023-04-25T06:24:59;101280.49;;;0.71;62.60
74079;BME280;62437;51.544;-3.276;2023-04-25T06:27:24;101281.62;;;1.32;65.70
74079;BME280;62437;51.544;-3.276;2023-04-25T06:29:50;101282.92;;;1.59;60.73
74079;BME280;62437;51.544;-3.276;2023-04-25T06:32:16;101281.54;;;2.20;60.67
74079;BME280;62437;51.544;-3.276;2023-04-25T06:34:42;101281.59;;;1.70;62.58
74079;BME280;62437;51.544;-3.276;2023-04-25T06:37:07;101273.01;;;2.56;59.76
74079;BME280;62437;51.544;-3.276;2023-04-25T06:39:33;101277.24;;;1.96;59.47
74079;BME280;62437;51.544;-3.276;2023-04-25T06:41:59;101280.49;;;2.44;61.76
74079;BME280;62437;51.544;-3.276;2023-04-25T06:44:25;101282.21;;;1.37;60.50
74079;BME280;62437;51.544;-3.276;2023-04-25T06:46:51;101278.51;;;1.86;61.45
74079;BME280;62437;51.544;-3.276;2023-04-25T06:49:16;101278.57;;;1.09;62.08
74079;BME280;62437;51.544;-3.276;2023-04-25T06:51:42;101275.41;;;1.49;62.74
74079;BME280;62437;51.544;-3.276;2023-04-25T06:54:08;101277.04;;;1.13;62.39
74079;BME280;62437;51.544;-3.276;2023-04-25T06:56:34;101277.63;;;0.47;62.68
74079;BME280;62437;51.544;-3.276;2023-04-25T06:58:59;101279.47;;;0.78;62.61
74079;BME280;62437;51.544;-3.276;2023-04-25T07:01:25;101280.70;;;1.07;60.75
74079;BME280;62437;51.544;-3.276;2023-04-25T07:03:51;101282.26;;;2.38;63.44
74079;BME280;62437;51.544;-3.276;2023-04-25T07:06:17;101287.32;;;1.43;60.34
74079;BME280;62437;51.544;-3.276;2023-04-25T07:08:42;101289.77;;;1.47;60.39
74079;BME280;62437;51.544;-3.276;2023-04-25T07:11:08;101292.69;;;1.74;57.89
74079;BME280;62437;51.544;-3.276;2023-04-25T07:13:34;101293.54;;;1.68;61.78
74079;BME280;62437;51.544;-3.276;2023-04-25T07:16:00;101296.48;;;2.12;58.30
74079;BME280;62437;51.544;-3.276;2023-04-25T07:18:25;101295.44;;;1.65;59.96
74079;BME280;62437;51.544;-3.276;2023-04-25T07:20:51;101297.69;;;2.16;59.60
74079;BME280;62437;51.544;-3.276;2023-04-25T07:23:17;101295.40;;;2.43;58.33
74079;BME280;62437;51.544;-3.276;2023-04-25T07:25:43;101295.96;;;2.74;58.06
74079;BME280;62437;51.544;-3.276;2023-04-25T07:28:09;101293.67;;;4.20;57.08
74079;BME280;62437;51.544;-3.276;2023-04-25T07:30:34;101297.16;;;1.84;57.61
74079;BME280;62437;51.544;-3.276;2023-04-25T07:33:00;101299.68;;;2.09;61.90
74079;BME280;62437;51.544;-3.276;2023-04-25T07:35:26;101301.82;;;2.35;57.93
74079;BME280;62437;51.544;-3.276;2023-04-25T07:37:52;101300.91;;;1.84;59.78
74079;BME280;62437;51.544;-3.276;2023-04-25T07:40:17;101299.07;;;2.28;57.71
74079;BME280;62437;51.544;-3.276;2023-04-25T07:42:43;101291.03;;;3.83;59.58
74079;BME280;62437;51.544;-3.276;2023-04-25T07:45:10;101292.80;;;3.74;55.77
74079;BME280;62437;51.544;-3.276;2023-04-25T07:47:35;101290.58;;;2.91;57.06
74079;BME280;62437;51.544;-3.276;2023-04-25T07:50:00;101292.10;;;3.25;54.27
74079;BME280;62437;51.544;-3.276;2023-04-25T07:52:26;101286.99;;;3.81;55.87
74079;BME280;62437;51.544;-3.276;2023-04-25T07:54:52;101284.77;;;4.42;53.41
74079;BME280;62437;51.544;-3.276;2023-04-25T07:57:18;101287.91;;;3.60;53.32
74079;BME280;62437;51.544;-3.276;2023-04-25T07:59:43;101289.03;;;4.13;51.05
74079;BME280;62437;51.544;-3.276;2023-04-25T08:02:09;101285.27;;;4.30;51.50
74079;BME280;62437;51.544;-3.276;2023-04-25T08:04:35;101282.02;;;4.99;51.86
74079;BME280;62437;51.544;-3.276;2023-04-25T08:07:00;101281.87;;;5.43;55.32
74079;BME280;62437;51.544;-3.276;2023-04-25T08:09:26;101284.16;;;5.82;50.02
74079;BME280;62437;51.544;-3.276;2023-04-25T08:11:52;101284.94;;;3.80;50.62
74079;BME280;62437;51.544;-3.276;2023-04-25T08:14:18;101285.12;;;3.35;52.65
74079;BME280;62437;51.544;-3.276;2023-04-25T08:16:43;101288.89;;;2.60;51.70
74079;BME280;62437;51.544;-3.276;2023-04-25T08:19:09;101284.40;;;3.63;51.24
74079;BME280;62437;51.544;-3.276;2023-04-25T08:21:36;101281.30;;;4.17;52.70
74079;BME280;62437;51.544;-3.276;2023-04-25T08:24:01;101284.61;;;4.87;50.77
74079;BME280;62437;51.544;-3.276;2023-04-25T08:26:27;101285.50;;;4.60;60.63
74079;BME280;62437;51.544;-3.276;2023-04-25T08:28:52;101283.19;;;4.37;52.05
74079;BME280;62437;51.544;-3.276;2023-04-25T08:31:18;101283.68;;;4.41;51.00
74079;BME280;62437;51.544;-3.276;2023-04-25T08:33:43;101286.16;;;3.55;51.50
74079;BME280;62437;51.544;-3.276;2023-04-25T08:36:09;101286.29;;;3.77;49.15
74079;BME280;62437;51.544;-3.276;2023-04-25T08:38:35;101285.27;;;3.18;49.10
74079;BME280;62437;51.544;-3.276;2023-04-25T08:41:01;101286.44;;;4.13;51.43
74079;BME280;62437;51.544;-3.276;2023-04-25T08:43:29;101288.04;;;4.37;52.57
74079;BME280;62437;51.544;-3.276;2023-04-25T08:45:53;101290.56;;;4.99;54.51
74079;BME280;62437;51.544;-3.276;2023-04-25T08:48:18;101289.02;;;3.98;53.22
74079;BME280;62437;51.544;-3.276;2023-04-25T08:50:48;101292.95;;;3.95;50.00
74079;BME280;62437;51.544;-3.276;2023-04-25T08:53:09;101292.53;;;5.12;54.00
74079;BME280;62437;51.544;-3.276;2023-04-25T08:55:37;101286.72;;;4.32;50.18
74079;BME280;62437;51.544;-3.276;2023-04-25T08:58:01;101286.13;;;5.02;48.02
74079;BME280;62437;51.544;-3.276;2023-04-25T09:00:27;101281.87;;;4.52;47.75
74079;BME280;62437;51.544;-3.276;2023-04-25T09:02:52;101283.43;;;4.30;48.90
74079;BME280;62437;51.544;-3.276;2023-04-25T09:05:18;101281.36;;;4.48;50.15
74079;BME280;62437;51.544;-3.276;2023-04-25T09:07:43;101287.25;;;4.66;49.88
74079;BME280;62437;51.544;-3.276;2023-04-25T09:10:09;101282.56;;;6.59;62.42
74079;BME280;62437;51.544;-3.276;2023-04-25T09:12:35;101282.78;;;4.97;52.07
74079;BME280;62437;51.544;-3.276;2023-04-25T09:15:04;101285.82;;;5.14;48.38
74079;BME280;62437;51.544;-3.276;2023-04-25T09:17:26;101287.93;;;4.75;49.68
74079;BME280;62437;51.544;-3.276;2023-04-25T09:19:52;101293.81;;;4.05;46.81
74079;BME280;62437;51.544;-3.276;2023-04-25T09:22:18;101287.72;;;5.11;48.57
74079;BME280;62437;51.544;-3.276;2023-04-25T09:24:44;101287.53;;;6.59;61.14
74079;BME280;62437;51.544;-3.276;2023-04-25T09:27:10;101286.85;;;5.84;48.65
74079;BME280;62437;51.544;-3.276;2023-04-25T09:29:37;101279.44;;;5.37;45.64
74079;BME280;62437;51.544;-3.276;2023-04-25T09:32:11;101283.43;;;7.15;61.64
74079;BME280;62437;51.544;-3.276;2023-04-25T09:34:26;101290.60;;;6.85;60.57
74079;BME280;62437;51.544;-3.276;2023-04-25T09:36:54;101293.00;;;5.73;45.78
74079;BME280;62437;51.544;-3.276;2023-04-25T09:39:18;101293.28;;;6.50;56.50
74079;BME280;62437;51.544;-3.276;2023-04-25T09:41:43;101288.72;;;7.50;60.31
74079;BME280;62437;51.544;-3.276;2023-04-25T09:44:12;101289.44;;;6.59;45.37
74079;BME280;62437;51.544;-3.276;2023-04-25T09:46:35;101300.67;;;6.10;47.13
74079;BME280;62437;51.544;-3.276;2023-04-25T09:49:06;101287.20;;;6.12;56.41
74079;BME280;62437;51.544;-3.276;2023-04-25T09:51:26;101286.50;;;5.30;42.14
74079;BME280;62437;51.544;-3.276;2023-04-25T09:53:52;101296.33;;;6.87;47.32
74079;BME280;62437;51.544;-3.276;2023-04-25T09:56:20;101296.74;;;7.41;56.55
74079;BME280;62437;51.544;-3.276;2023-04-25T09:58:43;101296.17;;;6.13;46.80
74079;BME280;62437;51.544;-3.276;2023-04-25T10:01:10;101303.81;;;6.58;42.96
74079;BME280;62437;51.544;-3.276;2023-04-25T10:03:36;101304.35;;;6.09;44.57
74079;BME280;62437;51.544;-3.276;2023-04-25T10:06:02;101299.79;;;5.38;42.24
74079;BME280;62437;51.544;-3.276;2023-04-25T10:08:31;101308.99;;;6.64;59.67
74079;BME280;62437;51.544;-3.276;2023-04-25T10:10:52;101304.21;;;5.40;43.99
74079;BME280;62437;51.544;-3.276;2023-04-25T10:13:18;101307.74;;;7.90;58.19
74079;BME280;62437;51.544;-3.276;2023-04-25T10:15:43;101308.77;;;8.01;52.14
74079;BME280;62437;51.544;-3.276;2023-04-25T10:18:09;101310.49;;;6.86;41.16
74079;BME280;62437;51.544;-3.276;2023-04-25T10:20:34;101311.47;;;6.61;42.01
74079;BME280;62437;51.544;-3.276;2023-04-25T10:23:10;101315.26;;;6.26;49.62
74079;BME280;62437;51.544;-3.276;2023-04-25T10:25:26;101309.03;;;5.78;43.19
74079;BME280;62437;51.544;-3.276;2023-04-25T10:27:52;101305.80;;;5.67;44.84
74079;BME280;62437;51.544;-3.276;2023-04-25T10:30:18;101302.08;;;6.05;39.68
74079;BME280;62437;51.544;-3.276;2023-04-25T10:32:43;101302.65;;;7.35;54.56
74079;BME280;62437;51.544;-3.276;2023-04-25T10:35:14;101302.70;;;6.72;43.85
74079;BME280;62437;51.544;-3.276;2023-04-25T10:37:35;101307.53;;;7.89;48.78
74079;BME280;62437;51.544;-3.276;2023-04-25T10:40:08;101308.97;;;6.64;39.61
74079;BME280;62437;51.544;-3.276;2023-04-25T10:42:26;101304.81;;;5.14;41.10
74079;BME280;62437;51.544;-3.276;2023-04-25T10:45:01;101313.18;;;6.79;49.18
74079;BME280;62437;51.544;-3.276;2023-04-25T10:47:23;101309.92;;;6.35;41.94
74079;BME280;62437;51.544;-3.276;2023-04-25T10:49:43;101310.75;;;5.44;41.71
74079;BME280;62437;51.544;-3.276;2023-04-25T10:52:17;101305.92;;;5.03;41.71
74079;BME280;62437;51.544;-3.276;2023-04-25T10:54:34;101304.61;;;4.83;43.87
74079;BME280;62437;51.544;-3.276;2023-04-25T10:57:00;101305.03;;;5.97;42.78
74079;BME280;62437;51.544;-3.276;2023-04-25T10:59:26;101309.41;;;6.47;45.20
74079;BME280;62437;51.544;-3.276;2023-04-25T11:01:53;101306.50;;;6.05;44.79
74079;BME280;62437;51.544;-3.276;2023-04-25T11:04:20;101302.24;;;8.19;53.11
74079;BME280;62437;51.544;-3.276;2023-04-25T11:06:51;101298.68;;;7.33;48.05
74079;BME280;62437;51.544;-3.276;2023-04-25T11:09:15;101294.85;;;8.10;47.23
74079;BME280;62437;51.544;-3.276;2023-04-25T11:11:37;101298.09;;;7.32;52.41
74079;BME280;62437;51.544;-3.276;2023-04-25T11:14:00;101300.22;;;7.18;45.14
74079;BME280;62437;51.544;-3.276;2023-04-25T11:16:25;101304.32;;;9.08;57.89
74079;BME280;62437;51.544;-3.276;2023-04-25T11:18:51;101303.34;;;9.67;59.28
74079;BME280;62437;51.544;-3.276;2023-04-25T11:21:17;101305.59;;;8.36;45.43
74079;BME280;62437;51.544;-3.276;2023-04-25T11:23:46;101306.31;;;8.57;47.43
74079;BME280;62437;51.544;-3.276;2023-04-25T11:26:09;101301.19;;;9.34;56.68
74079;BME280;62437;51.544;-3.276;2023-04-25T11:28:34;101299.97;;;9.73;58.32
74079;BME280;62437;51.544;-3.276;2023-04-25T11:30:59;101297.21;;;7.03;45.95
74079;BME280;62437;51.544;-3.276;2023-04-25T11:33:26;101302.67;;;7.79;43.09
74079;BME280;62437;51.544;-3.276;2023-04-25T11:35:52;101309.28;;;8.30;46.10
74079;BME280;62437;51.544;-3.276;2023-04-25T11:38:16;101314.60;;;8.85;44.19
74079;BME280;62437;51.544;-3.276;2023-04-25T11:40:44;101308.24;;;7.94;41.32
74079;BME280;62437;51.544;-3.276;2023-04-25T11:43:09;101305.99;;;7.88;51.58
74079;BME280;62437;51.544;-3.276;2023-04-25T11:45:33;101310.11;;;9.67;54.45
74079;BME280;62437;51.544;-3.276;2023-04-25T11:47:59;101303.56;;;7.82;40.87
74079;BME280;62437;51.544;-3.276;2023-04-25T11:50:25;101307.17;;;8.87;53.86
74079;BME280;62437;51.544;-3.276;2023-04-25T11:52:50;101302.93;;;9.74;56.05
74079;BME280;62437;51.544;-3.276;2023-04-25T11:55:17;101306.97;;;8.96;49.10
74079;BME280;62437;51.544;-3.276;2023-04-25T11:57:43;101303.46;;;7.92;40.61
74079;BME280;62437;51.544;-3.276;2023-04-25T12:00:11;101299.77;;;8.53;41.00
74079;BME280;62437;51.544;-3.276;2023-04-25T12:02:35;101294.78;;;7.85;44.10
74079;BME280;62437;51.544;-3.276;2023-04-25T12:04:59;101304.88;;;8.09;39.43
74079;BME280;62437;51.544;-3.276;2023-04-25T12:07:29;101304.07;;;5.90;41.20
74079;BME280;62437;51.544;-3.276;2023-04-25T12:09:52;101307.62;;;7.49;49.82
74079;BME280;62437;51.544;-3.276;2023-04-25T12:12:15;101302.21;;;8.28;44.30
74079;BME280;62437;51.544;-3.276;2023-04-25T12:14:46;101310.76;;;9.20;52.35
74079;BME280;62437;51.544;-3.276;2023-04-25T12:17:07;101306.18;;;7.48;39.11
74079;BME280;62437;51.544;-3.276;2023-04-25T12:19:33;101308.90;;;10.00;55.43
74079;BME280;62437;51.544;-3.276;2023-04-25T12:21:58;101306.89;;;7.97;40.23
74079;BME280;62437;51.544;-3.276;2023-04-25T12:24:25;101303.35;;;7.85;38.94
74079;BME280;62437;51.544;-3.276;2023-04-25T12:26:52;101302.52;;;8.20;42.73
74079;BME280;62437;51.544;-3.276;2023-04-25T12:29:16;101300.47;;;9.89;50.26
74079;BME280;62437;51.544;-3.276;2023-04-25T12:31:41;101295.85;;;9.12;42.43
74079;BME280;62437;51.544;-3.276;2023-04-25T12:34:06;101301.16;;;7.81;39.46
74079;BME280;62437;51.544;-3.276;2023-04-25T12:36:32;101298.22;;;7.36;41.72
74079;BME280;62437;51.544;-3.276;2023-04-25T12:39:00;101304.78;;;9.57;55.60
74079;BME280;62437;51.544;-3.276;2023-04-25T12:41:23;101299.79;;;8.69;39.89